createdAt,value
2018-10-06T00:00:49.953Z,68.70
2018-10-06T00:03:18.501Z,69.50
2018-10-06T00:05:47.000Z,69.20
2018-10-06T00:08:15.560Z,69.20
2018-10-06T00:10:44.060Z,69.50
2018-10-06T00:13:12.598Z,69.60
2018-10-06T00:15:41.203Z,69.60
2018-10-06T00:18:09.686Z,69.70
2018-10-06T00:20:38.246Z,69.80
2018-10-06T00:23:06.797Z,69.90
2018-10-06T00:25:35.323Z,70.00
2018-10-06T00:28:03.840Z,70.10
2018-10-06T00:30:32.383Z,70.40
2018-10-06T00:33:00.930Z,70.70
2018-10-06T00:35:29.552Z,70.80
2018-10-06T00:37:58.070Z,71.30
2018-10-06T00:40:26.660Z,71.70
2018-10-06T00:42:55.265Z,71.80
2018-10-06T00:45:23.835Z,71.60
2018-10-06T00:47:52.369Z,71.80
2018-10-06T00:50:20.932Z,72.00
2018-10-06T00:52:49.479Z,72.50
2018-10-06T00:55:18.086Z,72.60
2018-10-06T00:57:46.606Z,72.70
2018-10-06T01:00:15.179Z,72.80
2018-10-06T01:02:43.674Z,72.80
2018-10-06T01:05:12.240Z,73.00
2018-10-06T01:07:40.799Z,73.20
2018-10-06T01:10:09.480Z,73.10
2018-10-06T01:12:38.079Z,73.40
2018-10-06T01:15:06.570Z,73.40
2018-10-06T01:17:35.258Z,73.30
2018-10-06T01:20:03.830Z,73.60
2018-10-06T01:22:32.368Z,73.80
2018-10-06T01:25:00.928Z,74.20
2018-10-06T01:27:29.488Z,74.20
2018-10-06T01:29:58.018Z,74.20
2018-10-06T01:32:26.672Z,74.20
2018-10-06T01:34:55.172Z,74.40
2018-10-06T01:37:23.715Z,74.60
2018-10-06T01:39:52.248Z,74.80
2018-10-06T01:42:20.815Z,75.30
2018-10-06T01:44:49.346Z,75.50
2018-10-06T01:47:17.918Z,75.80
2018-10-06T01:49:46.454Z,76.30
2018-10-06T01:52:15.036Z,76.40
2018-10-06T01:54:43.557Z,76.50
2018-10-06T01:57:12.117Z,76.90
2018-10-06T01:59:40.628Z,77.40
2018-10-06T02:02:09.155Z,77.30
2018-10-06T02:04:37.701Z,77.60
2018-10-06T02:07:06.328Z,78.00
2018-10-06T02:09:34.928Z,78.30
2018-10-06T02:12:05.380Z,78.30
2018-10-06T02:14:33.923Z,78.20
2018-10-06T02:17:02.452Z,78.30
2018-10-06T02:19:30.979Z,78.40
2018-10-06T02:21:59.528Z,78.70
2018-10-06T02:24:28.084Z,78.50
2018-10-06T02:26:56.600Z,78.10
2018-10-06T02:29:25.168Z,78.20
2018-10-06T02:31:53.730Z,78.20
2018-10-06T02:34:22.316Z,78.20
2018-10-06T02:36:50.922Z,78.20
2018-10-06T02:39:19.420Z,78.60
2018-10-06T02:41:47.938Z,78.90
2018-10-06T02:44:16.478Z,79.40
2018-10-06T02:46:45.014Z,79.80
2018-10-06T02:49:13.574Z,80.60
2018-10-06T02:51:42.094Z,80.90
2018-10-06T02:54:10.718Z,81.00
2018-10-06T02:56:39.216Z,81.40
2018-10-06T02:59:07.750Z,81.60
2018-10-06T03:01:36.299Z,81.80
2018-10-06T03:04:04.854Z,82.10
2018-10-06T03:06:33.406Z,82.00
2018-10-06T03:09:01.905Z,82.80
2018-10-06T03:11:30.469Z,83.00
2018-10-06T03:13:59.019Z,83.40
2018-10-06T03:16:27.559Z,84.00
2018-10-06T03:18:56.050Z,84.70
2018-10-06T03:21:24.583Z,84.60
2018-10-06T03:23:53.071Z,85.00
2018-10-06T03:26:21.684Z,85.60
2018-10-06T03:28:50.194Z,85.80
2018-10-06T03:31:18.763Z,85.40
2018-10-06T03:33:47.297Z,85.60
2018-10-06T03:36:15.877Z,85.60
2018-10-06T03:38:44.378Z,85.60
2018-10-06T03:41:12.969Z,85.50
2018-10-06T03:43:41.484Z,85.80
2018-10-06T03:46:10.954Z,85.80
2018-10-06T03:48:39.475Z,85.80
2018-10-06T03:51:08.119Z,85.90
2018-10-06T03:53:36.959Z,86.10
2018-10-06T03:56:05.460Z,85.90
2018-10-06T03:58:34.113Z,85.90
2018-10-06T04:01:02.646Z,85.70
2018-10-06T04:03:31.217Z,86.00
2018-10-06T04:05:59.775Z,85.90
2018-10-06T04:08:28.335Z,86.30
2018-10-06T04:10:56.848Z,86.60
2018-10-06T04:13:25.423Z,86.70
2018-10-06T04:15:53.916Z,86.80
2018-10-06T04:18:22.467Z,87.40
2018-10-06T04:20:50.980Z,88.00
2018-10-06T04:23:19.537Z,87.80
2018-10-06T04:25:48.032Z,88.10
2018-10-06T04:28:16.590Z,88.40
2018-10-06T04:30:45.099Z,89.40
2018-10-06T04:33:13.643Z,89.00
2018-10-06T04:35:42.164Z,89.20
2018-10-06T04:38:10.743Z,89.00
2018-10-06T04:40:39.309Z,89.00
2018-10-06T04:43:07.842Z,89.10
2018-10-06T04:45:36.415Z,88.90
2018-10-06T04:48:04.979Z,89.20
2018-10-06T04:50:33.525Z,89.30
2018-10-06T04:53:02.079Z,89.60
2018-10-06T04:55:30.576Z,89.80
2018-10-06T04:57:59.110Z,89.80
2018-10-06T05:00:27.675Z,89.90
2018-10-06T05:02:56.177Z,90.10
2018-10-06T05:05:24.756Z,90.10
2018-10-06T05:07:53.435Z,90.30
2018-10-06T05:10:22.030Z,90.40
2018-10-06T05:12:50.614Z,90.40
2018-10-06T05:15:19.215Z,90.40
2018-10-06T05:17:47.734Z,90.60
2018-10-06T05:20:16.292Z,90.60
2018-10-06T05:22:44.793Z,90.60
2018-10-06T05:25:13.331Z,90.50
2018-10-06T05:27:41.868Z,90.60
2018-10-06T05:30:10.450Z,90.70
2018-10-06T05:32:38.976Z,90.90
2018-10-06T05:35:07.675Z,90.80
2018-10-06T05:37:36.207Z,90.80
2018-10-06T05:40:04.813Z,90.90
2018-10-06T05:42:33.299Z,90.80
2018-10-06T05:45:01.824Z,90.90
2018-10-06T05:47:30.384Z,90.90
2018-10-06T05:49:58.919Z,90.90
2018-10-06T05:52:27.471Z,90.90
2018-10-06T05:54:55.967Z,90.60
2018-10-06T05:57:24.524Z,90.60
2018-10-06T05:59:53.018Z,90.60
2018-10-06T06:02:21.559Z,90.60
2018-10-06T06:04:50.099Z,90.70
2018-10-06T06:07:18.711Z,90.70
2018-10-06T06:09:47.287Z,90.70
2018-10-06T06:12:15.802Z,90.80
2018-10-06T06:14:44.343Z,90.80
2018-10-06T06:17:12.912Z,90.70
2018-10-06T06:19:41.519Z,90.80
2018-10-06T06:22:10.040Z,90.80
2018-10-06T06:24:38.548Z,91.00
2018-10-06T06:27:07.096Z,90.60
2018-10-06T06:29:35.571Z,90.40
2018-10-06T06:32:05.312Z,90.30
2018-10-06T06:34:33.815Z,89.70
2018-10-06T06:37:02.413Z,90.00
2018-10-06T06:39:30.943Z,89.60
2018-10-06T06:41:59.449Z,89.50
2018-10-06T06:44:28.214Z,90.30
2018-10-06T06:46:56.660Z,90.30
2018-10-06T06:49:25.221Z,90.50
2018-10-06T06:51:53.717Z,90.70
2018-10-06T06:54:22.671Z,90.80
2018-10-06T06:56:51.199Z,91.20
2018-10-06T06:59:19.767Z,91.10
2018-10-06T07:01:48.307Z,90.50
2018-10-06T07:04:16.884Z,90.20
2018-10-06T07:06:45.456Z,90.30
2018-10-06T07:09:14.016Z,90.20
2018-10-06T07:11:42.772Z,90.10
2018-10-06T07:14:11.335Z,89.70
2018-10-06T07:16:39.824Z,89.70
2018-10-06T07:19:08.376Z,89.80
2018-10-06T07:21:36.990Z,87.50
2018-10-06T07:24:07.334Z,87.50
2018-10-06T07:26:36.057Z,88.10
2018-10-06T07:29:04.757Z,86.90
2018-10-06T07:31:33.350Z,85.50
2018-10-06T07:34:03.071Z,83.90
2018-10-06T07:36:31.605Z,84.30
2018-10-06T07:39:00.114Z,84.00
2018-10-06T07:41:28.672Z,84.50
2018-10-06T07:43:57.163Z,83.10
2018-10-06T07:46:25.894Z,83.10
2018-10-06T07:48:54.548Z,83.20
2018-10-06T07:51:23.144Z,82.90
2018-10-06T07:53:51.669Z,84.00
2018-10-06T07:56:20.237Z,84.10
2018-10-06T07:58:49.725Z,83.80
2018-10-06T08:01:18.275Z,83.80
2018-10-06T08:03:46.860Z,83.10
2018-10-06T08:06:15.528Z,82.50
2018-10-06T08:08:44.167Z,82.50
2018-10-06T08:11:12.786Z,82.00
2018-10-06T08:13:41.352Z,81.40
2018-10-06T08:16:10.170Z,81.40
2018-10-06T08:18:38.854Z,80.70
2018-10-06T08:21:07.784Z,80.50
2018-10-06T08:23:36.409Z,80.10
2018-10-06T08:26:04.985Z,80.60
2018-10-06T08:28:33.689Z,80.50
2018-10-06T08:31:05.641Z,78.70
2018-10-06T08:33:34.288Z,80.10
2018-10-06T08:36:02.804Z,79.70
2018-10-06T08:38:31.446Z,79.30
2018-10-06T08:41:00.009Z,77.70
2018-10-06T08:43:28.887Z,76.20
2018-10-06T08:45:57.456Z,75.70
2018-10-06T08:48:26.030Z,74.10
2018-10-06T08:50:54.549Z,74.70
2018-10-06T08:53:23.080Z,73.10
2018-10-06T08:55:51.617Z,73.10
2018-10-06T08:58:20.176Z,73.10
2018-10-06T09:00:48.751Z,72.70
2018-10-06T09:03:17.353Z,72.10
2018-10-06T09:05:45.918Z,70.00
2018-10-06T09:08:14.526Z,70.00
2018-10-06T09:10:43.085Z,67.90
2018-10-06T09:13:11.694Z,67.40
2018-10-06T09:15:40.403Z,67.20
2018-10-06T09:18:09.052Z,66.60
2018-10-06T09:20:37.606Z,66.20
2018-10-06T09:23:06.218Z,65.30
2018-10-06T09:25:34.803Z,66.10
2018-10-06T09:28:03.390Z,66.30
2018-10-06T09:30:31.995Z,64.70
2018-10-06T09:33:00.643Z,63.70
2018-10-06T09:35:29.212Z,64.50
2018-10-06T09:37:57.790Z,64.80
2018-10-06T09:40:26.458Z,63.50
2018-10-06T09:42:55.010Z,62.60
2018-10-06T09:45:23.675Z,62.50
2018-10-06T09:47:52.381Z,62.00
2018-10-06T09:50:20.910Z,60.80
2018-10-06T09:52:49.498Z,60.80
2018-10-06T09:55:18.073Z,60.50
2018-10-06T09:57:46.636Z,60.20
2018-10-06T10:00:18.250Z,59.50
2018-10-06T10:02:52.117Z,60.10
2018-10-06T10:05:55.793Z,60.00
2018-10-06T10:08:24.363Z,59.90
2018-10-06T10:10:52.937Z,58.50
2018-10-06T10:13:21.537Z,58.40
2018-10-06T10:15:50.153Z,59.40
2018-10-06T10:18:18.801Z,58.90
2018-10-06T10:20:47.314Z,59.50
2018-10-06T10:23:15.966Z,58.50
2018-10-06T10:25:44.539Z,57.70
2018-10-06T10:28:13.108Z,57.80
2018-10-06T10:30:44.150Z,57.20
2018-10-06T10:33:12.743Z,58.10
2018-10-06T10:35:41.336Z,58.00
2018-10-06T10:38:09.944Z,59.10
2018-10-06T10:40:38.434Z,57.20
2018-10-06T10:43:09.613Z,57.70
2018-10-06T10:45:38.171Z,57.30
2018-10-06T10:48:07.190Z,57.20
2018-10-06T10:50:35.725Z,56.50
2018-10-06T10:53:04.314Z,56.70
2018-10-06T10:55:32.966Z,57.40
2018-10-06T10:58:03.022Z,56.60
2018-10-06T11:00:31.604Z,56.40
2018-10-06T11:03:00.266Z,56.00
2018-10-06T11:05:28.808Z,56.50
2018-10-06T11:07:57.466Z,55.70
2018-10-06T11:10:26.022Z,56.40
2018-10-06T11:12:54.868Z,56.60
2018-10-06T11:15:23.455Z,56.50
2018-10-06T11:17:52.132Z,55.90
2018-10-06T11:20:20.687Z,56.60
2018-10-06T11:22:50.990Z,56.10
2018-10-06T11:25:19.521Z,56.60
2018-10-06T11:27:48.151Z,56.50
2018-10-06T11:30:16.724Z,56.00
2018-10-06T11:32:45.284Z,55.90
2018-10-06T11:35:13.824Z,55.30
2018-10-06T11:37:42.631Z,55.60
2018-10-06T11:40:11.052Z,55.80
2018-10-06T11:42:39.611Z,55.20
2018-10-06T11:45:08.204Z,56.10
2018-10-06T11:47:36.772Z,55.50
2018-10-06T11:50:06.433Z,56.40
2018-10-06T11:52:35.028Z,56.40
2018-10-06T11:55:03.615Z,55.40
2018-10-06T11:57:32.156Z,55.40
2018-10-06T12:00:00.838Z,55.00
2018-10-06T12:02:29.384Z,56.00
2018-10-06T12:04:58.060Z,55.90
2018-10-06T12:07:26.718Z,55.90
2018-10-06T12:09:55.318Z,56.40
2018-10-06T12:12:23.872Z,56.40
2018-10-06T12:14:52.496Z,56.40
2018-10-06T12:17:21.047Z,55.70
2018-10-06T12:19:49.599Z,56.50
2018-10-06T12:22:18.128Z,56.70
2018-10-06T12:24:46.694Z,56.90
2018-10-06T12:27:15.202Z,56.60
2018-10-06T12:29:44.118Z,56.40
2018-10-06T12:32:12.652Z,56.60
2018-10-06T12:34:41.238Z,57.00
2018-10-06T12:37:09.778Z,56.80
2018-10-06T12:39:38.358Z,55.90
2018-10-06T12:42:06.951Z,57.70
2018-10-06T12:44:35.504Z,57.30
2018-10-06T12:47:04.109Z,56.50
2018-10-06T12:49:32.678Z,56.70
2018-10-06T12:52:01.243Z,56.50
2018-10-06T12:54:29.960Z,56.50
2018-10-06T12:56:58.615Z,56.60
2018-10-06T12:59:27.166Z,57.70
2018-10-06T13:01:55.748Z,57.30
2018-10-06T13:04:24.279Z,58.20
2018-10-06T13:06:52.908Z,58.50
2018-10-06T13:09:21.460Z,58.80
2018-10-06T13:11:50.070Z,57.90
2018-10-06T13:14:18.933Z,57.70
2018-10-06T13:16:47.532Z,57.70
2018-10-06T13:19:16.070Z,57.80
2018-10-06T13:21:44.696Z,58.10
2018-10-06T13:24:13.206Z,59.00
2018-10-06T13:26:41.769Z,58.10
2018-10-06T13:29:11.173Z,58.90
2018-10-06T13:31:40.065Z,58.70
2018-10-06T13:34:08.658Z,58.20
2018-10-06T13:36:37.239Z,57.40
2018-10-06T13:39:07.518Z,57.40
2018-10-06T13:41:36.148Z,58.20
2018-10-06T13:44:04.824Z,57.70
2018-10-06T13:46:33.750Z,58.50
2018-10-06T13:49:03.112Z,59.10
2018-10-06T13:51:31.652Z,59.60
2018-10-06T13:54:00.545Z,59.90
2018-10-06T13:56:29.097Z,60.30
2018-10-06T13:58:57.678Z,61.50
2018-10-06T14:01:26.242Z,61.00
2018-10-06T14:03:54.818Z,61.40
2018-10-06T14:06:23.415Z,61.90
2018-10-06T14:08:52.020Z,62.30
2018-10-06T14:11:20.688Z,62.90
2018-10-06T14:13:49.322Z,62.40
2018-10-06T14:16:17.911Z,63.20
2018-10-06T14:18:46.546Z,62.10
2018-10-06T14:21:15.139Z,62.30
2018-10-06T14:23:43.659Z,61.80
2018-10-06T14:26:12.319Z,62.10
2018-10-06T14:28:40.864Z,62.70
2018-10-06T14:31:09.464Z,61.30
2018-10-06T14:33:37.996Z,61.50
2018-10-06T14:36:06.640Z,62.60
2018-10-06T14:38:35.178Z,63.30
2018-10-06T14:41:03.837Z,62.20
2018-10-06T14:43:32.798Z,61.80
2018-10-06T14:46:03.107Z,61.90
2018-10-06T14:48:31.661Z,64.50
2018-10-06T14:51:00.253Z,62.60
2018-10-06T14:53:28.813Z,62.60
2018-10-06T14:55:57.395Z,62.70
2018-10-06T14:58:26.115Z,61.70
2018-10-06T15:00:54.747Z,62.60
2018-10-06T15:03:23.281Z,63.20
2018-10-06T15:05:51.868Z,63.30
2018-10-06T15:08:20.459Z,61.90
2018-10-06T15:10:49.109Z,62.70
2018-10-06T15:13:17.681Z,63.30
2018-10-06T15:15:46.567Z,63.30
2018-10-06T15:18:15.078Z,63.70
2018-10-06T15:20:43.578Z,64.20
2018-10-06T15:23:12.205Z,65.10
2018-10-06T15:25:40.787Z,65.00
2018-10-06T15:28:09.424Z,64.80
2018-10-06T15:30:37.937Z,65.40
2018-10-06T15:33:06.826Z,65.70
2018-10-06T15:35:35.387Z,66.30
2018-10-06T15:38:03.992Z,67.10
2018-10-06T15:40:32.507Z,67.70
2018-10-06T15:45:32.576Z,68.70
2018-10-06T15:48:02.963Z,69.00
2018-10-06T15:50:31.479Z,69.60
2018-10-06T15:53:00.023Z,69.60
2018-10-06T15:55:28.573Z,70.40
2018-10-06T15:57:57.204Z,70.70
2018-10-06T16:00:25.855Z,71.30
2018-10-06T16:02:54.479Z,71.60
2018-10-06T16:05:22.978Z,71.90
2018-10-06T16:07:51.570Z,72.80
2018-10-06T16:10:20.120Z,73.10
2018-10-06T16:12:48.650Z,73.10
2018-10-06T16:15:17.230Z,73.90
2018-10-06T16:17:45.803Z,74.00
2018-10-06T16:20:14.391Z,74.00
2018-10-06T16:22:42.978Z,74.80
2018-10-06T16:25:11.595Z,75.10
2018-10-06T16:27:40.117Z,75.90
2018-10-06T16:30:11.196Z,76.50
2018-10-06T16:32:39.789Z,77.30
2018-10-06T16:35:08.384Z,77.70
2018-10-06T16:37:36.882Z,78.60
2018-10-06T16:40:05.732Z,78.60
2018-10-06T16:42:34.243Z,79.20
2018-10-06T16:45:03.731Z,79.90
2018-10-06T16:47:32.265Z,80.80
2018-10-06T16:50:00.840Z,81.00
2018-10-06T16:52:29.363Z,81.80
2018-10-06T16:54:57.956Z,81.60
2018-10-06T16:57:26.476Z,81.70
2018-10-06T16:59:55.129Z,82.90
2018-10-06T17:02:23.636Z,82.60
2018-10-06T17:04:52.186Z,82.90
2018-10-06T17:07:20.714Z,83.20
2018-10-06T17:09:50.174Z,84.30
2018-10-06T17:12:18.728Z,84.50
2018-10-06T17:14:47.292Z,85.30
2018-10-06T17:17:15.847Z,85.70
2018-10-06T17:19:44.395Z,85.90
2018-10-06T17:22:12.937Z,86.70
2018-10-06T17:24:41.437Z,86.70
2018-10-06T17:27:09.987Z,87.10
2018-10-06T17:29:38.477Z,87.80
2018-10-06T17:32:07.030Z,88.80
2018-10-06T17:34:35.550Z,89.80
2018-10-06T17:37:04.097Z,89.10
2018-10-06T17:39:32.651Z,89.40
2018-10-06T17:42:03.105Z,89.30
2018-10-06T17:44:31.765Z,89.60
2018-10-06T17:47:00.379Z,90.00
2018-10-06T17:49:28.947Z,89.80
2018-10-06T17:51:57.605Z,89.80
2018-10-06T17:54:26.158Z,89.90
2018-10-06T17:56:54.751Z,90.10
2018-10-06T17:59:23.258Z,90.40
2018-10-06T18:01:51.847Z,90.30
2018-10-06T18:04:20.403Z,90.40
2018-10-06T18:06:49.013Z,90.50
2018-10-06T18:09:17.613Z,90.60
2018-10-06T18:11:46.105Z,91.00
2018-10-06T18:14:14.708Z,91.60
2018-10-06T18:16:43.217Z,92.00
2018-10-06T18:19:11.811Z,92.20
2018-10-06T18:21:40.311Z,92.10
2018-10-06T18:24:08.869Z,92.00
2018-10-06T18:26:37.452Z,91.90
2018-10-06T18:29:06.069Z,91.90
2018-10-06T18:31:34.583Z,92.20
2018-10-06T18:34:03.555Z,92.20
2018-10-06T18:36:32.225Z,92.30
2018-10-06T18:39:03.299Z,92.70
2018-10-06T18:41:31.839Z,93.00
2018-10-06T18:44:00.423Z,92.90
2018-10-06T18:46:29.023Z,92.80
2018-10-06T18:48:57.777Z,92.70
2018-10-06T18:51:26.428Z,92.80
2018-10-06T18:53:54.996Z,93.00
2018-10-06T18:56:23.786Z,93.00
2018-10-06T18:58:52.347Z,93.30
2018-10-06T19:01:20.856Z,93.20
2018-10-06T19:03:49.596Z,93.20
2018-10-06T19:06:18.040Z,93.40
2018-10-06T19:08:46.639Z,93.50
2018-10-06T19:11:15.244Z,93.50
2018-10-06T19:13:43.827Z,93.70
2018-10-06T19:16:12.428Z,93.60
2018-10-06T19:18:40.959Z,93.70
2018-10-06T19:21:09.548Z,93.90
2018-10-06T19:23:38.076Z,93.80
2018-10-06T19:26:06.683Z,93.80
2018-10-06T19:28:35.206Z,93.80
2018-10-06T19:31:03.787Z,93.90
2018-10-06T19:33:32.295Z,94.10
2018-10-06T19:36:02.372Z,94.20
2018-10-06T19:38:30.884Z,94.20
2018-10-06T19:40:59.428Z,94.20
2018-10-06T19:43:27.959Z,94.30
2018-10-06T19:45:56.618Z,94.00
2018-10-06T19:48:25.088Z,94.30
2018-10-06T19:50:53.686Z,94.30
2018-10-06T19:53:22.252Z,94.40
2018-10-06T19:55:50.874Z,94.20
2018-10-06T19:58:19.561Z,94.30
2018-10-06T20:00:48.217Z,94.50
2018-10-06T20:03:16.742Z,94.50
2018-10-06T20:05:45.294Z,94.50
2018-10-06T20:08:13.917Z,94.50
2018-10-06T20:10:42.455Z,94.50
2018-10-06T20:13:11.024Z,94.70
2018-10-06T20:15:39.536Z,94.70
2018-10-06T20:18:08.118Z,94.60
2018-10-06T20:20:36.686Z,94.50
2018-10-06T20:23:05.264Z,94.70
2018-10-06T20:25:33.880Z,94.80
2018-10-06T20:28:03.164Z,94.90
2018-10-06T20:30:31.731Z,95.00
2018-10-06T20:33:00.384Z,95.00
2018-10-06T20:35:28.874Z,94.90
2018-10-06T20:37:57.423Z,95.20
2018-10-06T20:40:25.994Z,95.20
2018-10-06T20:42:54.515Z,95.20
2018-10-06T20:45:23.044Z,95.20
2018-10-06T20:47:51.629Z,95.40
2018-10-06T20:50:20.205Z,95.40
2018-10-06T20:52:48.887Z,95.30
2018-10-06T20:55:17.443Z,95.40
2018-10-06T20:57:46.041Z,95.50
2018-10-06T21:00:14.619Z,95.50
2018-10-06T21:02:43.191Z,95.60
2018-10-06T21:05:11.756Z,95.70
2018-10-06T21:07:40.283Z,95.40
2018-10-06T21:10:08.853Z,95.60
2018-10-06T21:12:37.347Z,95.90
2018-10-06T21:15:06.000Z,96.20
2018-10-06T21:17:34.564Z,96.60
2018-10-06T21:22:35.567Z,96.90
2018-10-06T21:25:04.196Z,97.00
2018-10-06T21:27:32.772Z,97.10
2018-10-06T21:30:02.934Z,97.10
2018-10-06T21:32:31.457Z,97.30
2018-10-06T21:35:00.039Z,97.50
2018-10-06T21:37:28.540Z,97.60
2018-10-06T21:39:57.209Z,97.40
2018-10-06T21:42:25.751Z,97.70
2018-10-06T21:44:54.412Z,97.70
2018-10-06T21:47:22.967Z,97.70
2018-10-06T21:49:51.676Z,97.70
2018-10-06T21:52:20.265Z,97.80
2018-10-06T21:54:48.853Z,97.80
2018-10-06T21:57:17.445Z,97.70
2018-10-06T21:59:46.263Z,97.70
2018-10-06T22:02:14.831Z,97.50
2018-10-06T22:04:43.345Z,97.60
2018-10-06T22:07:11.988Z,97.30
2018-10-06T22:09:40.473Z,97.40
2018-10-06T22:12:09.413Z,97.40
2018-10-06T22:14:38.000Z,97.30
2018-10-06T22:17:09.328Z,97.30
2018-10-06T22:19:37.875Z,97.30
2018-10-06T22:22:07.495Z,97.40
2018-10-06T22:24:36.031Z,97.20
2018-10-06T22:27:04.740Z,97.30
2018-10-06T22:29:33.266Z,97.30
2018-10-06T22:32:07.584Z,97.40
2018-10-06T22:34:36.121Z,97.50
2018-10-06T22:37:05.138Z,97.30
2018-10-06T22:39:33.696Z,97.40
2018-10-06T22:42:03.036Z,97.40
2018-10-06T22:44:31.613Z,97.40
2018-10-06T22:47:00.202Z,97.40
2018-10-06T22:49:28.727Z,97.50
2018-10-06T22:51:57.238Z,97.50
2018-10-06T22:54:25.783Z,97.40
2018-10-06T22:56:54.356Z,97.40
2018-10-06T22:59:23.057Z,97.50
2018-10-06T23:01:51.586Z,97.60
2018-10-06T23:04:20.145Z,97.70
2018-10-06T23:06:48.691Z,97.80
2018-10-06T23:09:17.297Z,97.80
2018-10-06T23:11:45.788Z,98.00
2018-10-06T23:14:14.380Z,97.90
2018-10-06T23:16:42.918Z,98.00
2018-10-06T23:19:11.589Z,98.00
2018-10-06T23:21:40.129Z,98.00
2018-10-06T23:24:08.701Z,98.10
2018-10-06T23:26:37.232Z,98.20
2018-10-06T23:29:05.831Z,98.30
2018-10-06T23:31:34.377Z,98.40
2018-10-06T23:34:03.020Z,98.40
2018-10-06T23:36:31.551Z,98.40
2018-10-06T23:39:00.083Z,98.30
2018-10-06T23:41:28.748Z,98.30
2018-10-06T23:43:57.370Z,98.40
2018-10-06T23:46:25.870Z,98.40
2018-10-06T23:48:54.368Z,98.50
2018-10-06T23:51:22.961Z,98.50
2018-10-06T23:53:51.534Z,98.50
2018-10-06T23:56:20.194Z,98.60
2018-10-06T23:58:48.752Z,98.50
